Time;durP1;ratioP1;P1;durP2;ratioP2;P2;SDS_P1;SDS_P2;PMS_P1;PMS_P2;Temp;Humidity;BMP_temperature;BMP_pressure;BME280_temperature;BME280_humidity;BME280_pressure;Samples;Min_cycle;Max_cycle;Signal;HPM_P1;HPM_P2
2023/05/13 00:02:32;;;;;;;36.13;25.50;;;;;;;8.30;100.00;101804.06;10484686;28;20119;-82
2023/05/13 00:07:32;;;;;;;29.13;23.20;;;;;;;8.20;100.00;101803.41;10516769;28;20128;-82
2023/05/13 00:12:33;;;;;;;40.33;24.23;;;;;;;8.04;100.00;101797.88;10512150;28;20056;-81
2023/05/13 00:17:33;;;;;;;37.25;28.95;;;;;;;7.97;100.00;101791.31;10503804;28;20041;-81
2023/05/13 00:22:34;;;;;;;37.55;28.77;;;;;;;7.86;100.00;101790.53;10512668;28;20180;-81
2023/05/13 00:27:34;;;;;;;36.17;26.30;;;;;;;7.78;100.00;101781.22;10507263;28;20036;-81
2023/05/13 00:32:35;;;;;;;30.98;25.10;;;;;;;7.68;100.00;101779.66;10498118;28;20466;-82
2023/05/13 00:37:36;;;;;;;34.03;29.25;;;;;;;7.67;100.00;101779.53;10484252;28;20051;-82
2023/05/13 00:42:37;;;;;;;39.55;31.38;;;;;;;7.82;100.00;101771.97;10493536;28;20470;-82
2023/05/13 00:47:38;;;;;;;37.70;27.27;;;;;;;7.71;100.00;101781.56;10499985;28;20044;-82
2023/05/13 00:52:40;;;;;;;44.83;29.95;;;;;;;7.61;100.00;101778.28;10502720;28;20047;-82
2023/05/13 00:57:40;;;;;;;38.00;25.67;;;;;;;7.56;100.00;101781.34;10488140;28;20088;-82
2023/05/13 01:03:04;;;;;;;40.22;33.42;;;;;;;7.62;100.00;101772.28;10500477;28;20154;-82
2023/05/13 01:08:19;;;;;;;45.03;34.22;;;;;;;7.79;100.00;101775.22;10489998;28;20059;-81
2023/05/13 01:13:23;;;;;;;41.90;34.47;;;;;;;7.85;100.00;101770.47;10503452;28;20032;-82
2023/05/13 01:18:26;;;;;;;40.65;31.35;;;;;;;7.74;100.00;101781.81;10502888;28;20484;-83
2023/05/13 01:23:27;;;;;;;40.08;31.30;;;;;;;7.66;100.00;101772.50;10503185;28;20511;-82
2023/05/13 01:28:27;;;;;;;45.20;33.63;;;;;;;7.51;100.00;101767.97;10502731;28;20127;-82
2023/05/13 01:33:28;;;;;;;45.65;24.88;;;;;;;7.48;100.00;101788.59;10492916;28;20032;-82
2023/05/13 01:38:29;;;;;;;42.30;31.55;;;;;;;7.58;100.00;101780.66;10481430;28;21022;-82
2023/05/13 01:43:29;;;;;;;42.63;32.85;;;;;;;7.53;100.00;101773.31;10489058;28;20559;-82
2023/05/13 01:48:30;;;;;;;43.63;32.75;;;;;;;7.45;100.00;101785.75;10500863;28;20048;-81
2023/05/13 01:53:30;;;;;;;47.00;35.40;;;;;;;7.43;100.00;101767.41;10484513;28;20040;-81
2023/05/13 01:58:31;;;;;;;45.50;33.63;;;;;;;7.41;100.00;101776.81;10499651;28;20044;-81
2023/05/13 02:03:32;;;;;;;50.08;33.30;;;;;;;7.33;100.00;101773.63;10499194;28;20077;-81
2023/05/13 02:08:32;;;;;;;46.65;35.22;;;;;;;7.26;100.00;101773.06;10482216;28;20611;-81
2023/05/13 02:13:33;;;;;;;53.53;37.28;;;;;;;7.20;100.00;101773.47;10499677;28;20051;-81
2023/05/13 02:18:33;;;;;;;47.97;35.20;;;;;;;7.20;100.00;101776.09;10492243;28;20090;-81
2023/05/13 02:23:34;;;;;;;48.38;35.03;;;;;;;7.14;100.00;101779.16;10507962;28;20501;-81
2023/05/13 02:28:35;;;;;;;46.15;33.45;;;;;;;7.27;100.00;101774.88;10506269;28;20044;-81
2023/05/13 02:33:35;;;;;;;52.88;36.58;;;;;;;7.19;100.00;101771.66;10490057;28;20420;-81
2023/05/13 02:38:36;;;;;;;54.72;39.10;;;;;;;7.25;100.00;101773.84;10504483;28;20135;-82
2023/05/13 02:43:36;;;;;;;49.40;34.08;;;;;;;7.18;100.00;101773.38;10509568;28;20139;-81
2023/05/13 02:48:37;;;;;;;56.50;35.75;;;;;;;7.07;100.00;101781.16;10480974;28;20138;-82
2023/05/13 02:53:38;;;;;;;50.20;36.75;;;;;;;7.00;100.00;101778.06;10496450;28;20111;-82
2023/05/13 02:58:38;;;;;;;52.30;36.67;;;;;;;6.98;100.00;101770.97;10497973;28;20447;-81
2023/05/13 03:03:39;;;;;;;49.08;35.22;;;;;;;6.96;100.00;101776.03;10513458;28;20128;-82
2023/05/13 03:08:39;;;;;;;50.72;35.45;;;;;;;6.94;100.00;101762.00;10516079;28;20046;-79
2023/05/13 03:13:40;;;;;;;47.42;36.03;;;;;;;6.93;100.00;101762.78;10506170;28;20127;-81
2023/05/13 03:18:40;;;;;;;48.25;36.78;;;;;;;6.93;100.00;101761.88;10508773;28;20471;-81
2023/05/13 03:23:41;;;;;;;54.10;39.70;;;;;;;6.96;100.00;101772.53;10504790;28;20127;-81
2023/05/13 03:28:41;;;;;;;54.20;42.60;;;;;;;7.01;100.00;101769.47;10500645;28;20380;-80
2023/05/13 03:33:42;;;;;;;52.72;39.78;;;;;;;7.13;100.00;101764.31;10491387;28;20550;-81
2023/05/13 03:38:42;;;;;;;46.97;34.95;;;;;;;7.15;100.00;101772.22;10506183;28;20071;-81
2023/05/13 03:43:43;;;;;;;54.75;38.22;;;;;;;7.11;100.00;101778.91;10514485;28;20116;-81
2023/05/13 03:48:44;;;;;;;55.50;38.03;;;;;;;7.12;100.00;101782.41;10511967;28;20044;-81
2023/05/13 03:53:44;;;;;;;50.63;38.45;;;;;;;7.07;100.00;101776.88;10514854;28;20507;-81
2023/05/13 03:58:45;;;;;;;45.47;36.08;;;;;;;7.08;100.00;101783.88;10503741;28;20134;-80
2023/05/13 04:03:45;;;;;;;62.75;42.00;;;;;;;7.18;100.00;101790.69;10502141;28;20163;-79
2023/05/13 04:08:47;;;;;;;50.67;36.95;;;;;;;7.25;100.00;101786.88;10509800;28;20124;-81
2023/05/13 04:13:48;;;;;;;47.10;35.00;;;;;;;7.32;100.00;101784.81;10509257;28;20064;-81
2023/05/13 04:18:48;;;;;;;59.70;36.97;;;;;;;7.48;100.00;101788.59;10512762;28;20123;-81
2023/05/13 04:23:49;;;;;;;49.92;36.15;;;;;;;7.62;100.00;101787.91;10514946;28;20552;-81
2023/05/13 04:28:49;;;;;;;49.60;36.65;;;;;;;7.71;100.00;101782.50;10513203;28;20051;-80
2023/05/13 04:33:50;;;;;;;54.95;36.45;;;;;;;7.74;100.00;101784.41;10505364;28;20044;-82
2023/05/13 04:38:50;;;;;;;50.03;36.38;;;;;;;7.79;100.00;101793.47;10507002;28;20122;-82
2023/05/13 04:43:51;;;;;;;46.15;33.08;;;;;;;7.84;100.00;101792.09;10503371;28;20567;-82
2023/05/13 04:48:51;;;;;;;42.25;32.20;;;;;;;7.89;100.00;101793.34;10515149;28;20173;-80
2023/05/13 04:53:53;;;;;;;42.05;32.03;;;;;;;8.00;100.00;101793.22;10507013;28;20055;-80
2023/05/13 04:58:53;;;;;;;44.97;31.50;;;;;;;8.08;100.00;101793.00;10512442;28;20158;-83
2023/05/13 05:03:54;;;;;;;45.33;34.78;;;;;;;8.22;100.00;101803.53;10507424;28;20032;-82
2023/05/13 05:08:55;;;;;;;41.45;30.00;;;;;;;8.39;100.00;101815.16;10501848;28;20467;-82
2023/05/13 05:13:56;;;;;;;45.33;34.35;;;;;;;8.57;100.00;101804.25;10481427;28;20547;-82
2023/05/13 05:18:56;;;;;;;39.80;31.15;;;;;;;8.78;100.00;101815.31;10493407;28;20131;-80
2023/05/13 05:23:58;;;;;;;34.38;27.92;;;;;;;9.21;100.00;101810.47;10522443;28;20064;-80
2023/05/13 05:28:59;;;;;;;29.40;23.40;;;;;;;10.37;100.00;101819.75;10507742;28;20040;-84
2023/05/13 05:34:10;;;;;;;24.73;17.58;;;;;;;11.71;100.00;101828.72;10516140;28;20131;-82
2023/05/13 05:39:11;;;;;;;17.17;14.25;;;;;;;12.78;100.00;101821.59;10510597;28;20050;-82
2023/05/13 05:44:13;;;;;;;18.23;12.13;;;;;;;14.10;100.00;101801.06;10516599;28;20032;-82
2023/05/13 05:49:13;;;;;;;15.80;11.83;;;;;;;15.29;100.00;101715.94;10506766;28;20047;-82
2023/05/13 05:54:13;;;;;;;22.30;12.73;;;;;;;16.39;100.00;101746.69;10498229;28;20127;-83
2023/05/13 05:59:14;;;;;;;13.97;12.17;;;;;;;17.38;100.00;101767.88;10502296;28;20122;-82
2023/05/13 06:04:16;;;;;;;14.80;11.53;;;;;;;18.46;100.00;101770.38;10508435;28;20044;-82
2023/05/13 06:09:16;;;;;;;12.38;10.10;;;;;;;19.06;100.00;101776.50;10515910;28;20403;-84
2023/05/13 06:14:17;;;;;;;12.17;10.47;;;;;;;19.56;100.00;101772.47;10503688;28;20124;-84
2023/05/13 06:19:17;;;;;;;17.00;12.20;;;;;;;20.05;100.00;101769.22;10502365;28;20143;-82
2023/05/13 06:24:18;;;;;;;14.43;10.93;;;;;;;20.39;100.00;101775.28;10489988;28;20044;-83
2023/05/13 06:29:18;;;;;;;14.47;10.30;;;;;;;21.29;93.15;101774.41;10497959;28;20036;-83
2023/05/13 06:34:18;;;;;;;15.93;11.93;;;;;;;21.54;89.11;101782.81;10515385;28;20111;-83
2023/05/13 06:39:19;;;;;;;21.80;12.23;;;;;;;21.92;88.09;101779.91;10507265;28;20043;-80
2023/05/13 06:44:20;;;;;;;16.57;12.33;;;;;;;22.40;81.50;101780.59;10513441;28;20161;-80
2023/05/13 06:49:20;;;;;;;18.67;12.10;;;;;;;22.09;85.66;101785.50;10490528;28;20131;-83
2023/05/13 06:54:21;;;;;;;14.60;10.93;;;;;;;23.07;76.41;101793.84;10499067;28;20044;-83
2023/05/13 06:59:21;;;;;;;24.10;14.60;;;;;;;23.06;79.24;101792.06;10502427;28;20123;-83
2023/05/13 07:04:22;;;;;;;18.23;14.90;;;;;;;23.37;77.03;101793.25;10500164;28;20483;-83
2023/05/13 07:09:22;;;;;;;16.00;13.77;;;;;;;23.46;76.88;101793.34;10503689;28;20223;-83
2023/05/13 07:14:24;;;;;;;22.80;15.40;;;;;;;24.12;71.62;101791.19;10517076;28;20051;-82
2023/05/13 07:19:25;;;;;;;25.63;16.58;;;;;;;24.12;67.50;101796.53;10498020;28;20044;-83
2023/05/13 07:24:25;;;;;;;17.77;16.07;;;;;;;24.20;68.95;101792.13;10519132;28;20391;-82
2023/05/13 07:29:26;;;;;;;20.00;16.40;;;;;;;24.28;71.69;101790.38;10511886;28;20044;-82
2023/05/13 07:34:26;;;;;;;20.10;14.20;;;;;;;24.88;69.34;101795.13;10494877;28;20040;-82
2023/05/13 07:39:27;;;;;;;13.70;12.30;;;;;;;25.50;64.12;101803.28;10511984;28;20127;-82
2023/05/13 07:44:27;;;;;;;17.77;14.50;;;;;;;25.35;69.62;101808.59;10506786;28;20063;-81
2023/05/13 07:49:29;;;;;;;14.90;12.43;;;;;;;25.62;62.75;101802.41;10523797;28;20257;-81
2023/05/13 07:54:29;;;;;;;12.37;11.07;;;;;;;25.70;63.68;101802.38;10520694;28;20054;-82
2023/05/13 07:59:30;;;;;;;15.00;11.03;;;;;;;26.34;62.80;101792.44;10520736;28;20400;-82
2023/05/13 08:04:31;;;;;;;12.50;11.18;;;;;;;26.37;62.14;101803.16;10511131;28;20183;-82
2023/05/13 08:09:31;;;;;;;11.73;10.57;;;;;;;26.93;58.88;101796.69;10508633;28;20131;-82
2023/05/13 08:14:32;;;;;;;12.13;10.53;;;;;;;26.98;58.36;101797.56;10521275;28;20115;-82
2023/05/13 08:19:32;;;;;;;11.70;10.50;;;;;;;27.12;56.51;101802.81;10506109;28;20471;-82
2023/05/13 08:24:33;;;;;;;16.47;11.80;;;;;;;27.19;54.94;101798.31;10526015;28;20359;-82
2023/05/13 08:29:33;;;;;;;10.77;8.67;;;;;;;27.22;59.76;101804.53;10507953;28;20115;-81
2023/05/13 08:34:34;;;;;;;13.27;9.60;;;;;;;27.57;53.99;101791.78;10515043;28;20282;-81
2023/05/13 08:39:34;;;;;;;11.77;8.63;;;;;;;27.49;53.15;101793.63;10516569;28;20049;-80
2023/05/13 08:44:38;;;;;;;9.38;8.30;;;;;;;27.72;56.22;101798.78;10509402;28;20559;-81
2023/05/13 08:49:38;;;;;;;10.63;9.40;;;;;;;27.55;55.82;101799.84;10514639;28;20036;-82
2023/05/13 08:54:39;;;;;;;9.47;8.53;;;;;;;27.83;52.56;101802.25;10509599;28;20119;-79
2023/05/13 08:59:39;;;;;;;12.23;8.60;;;;;;;28.45;55.00;101794.44;10496478;28;20509;-79
2023/05/13 09:04:41;;;;;;;10.30;8.90;;;;;;;28.21;56.53;101801.91;10509289;28;20043;-80
2023/05/13 09:09:41;;;;;;;12.95;8.48;;;;;;;28.36;52.67;101790.97;10501427;28;20039;-80
2023/05/13 09:14:42;;;;;;;13.50;7.18;;;;;;;28.92;52.53;101794.75;10496497;28;20118;-79
2023/05/13 09:19:42;;;;;;;9.73;7.07;;;;;;;29.31;50.84;101789.66;10511857;28;20127;-79
2023/05/13 09:24:52;;;;;;;18.77;8.67;;;;;;;29.36;51.88;101794.97;10516744;28;20127;-79
2023/05/13 09:29:59;;;;;;;8.52;7.32;;;;;;;28.95;51.18;101786.63;10506607;28;20412;-80
2023/05/13 09:35:16;;;;;;;11.35;7.45;;;;;;;29.10;51.97;101781.00;10504664;28;20039;-80
2023/05/13 09:40:16;;;;;;;8.40;6.60;;;;;;;29.16;48.90;101786.31;10498608;28;20113;-81
2023/05/13 09:45:17;;;;;;;13.37;7.90;;;;;;;29.38;48.94;101771.56;10494204;28;20136;-80
2023/05/13 09:50:18;;;;;;;9.32;7.63;;;;;;;29.76;48.63;101769.16;10508604;28;20384;-80
2023/05/13 09:55:18;;;;;;;13.13;7.63;;;;;;;28.53;48.95;101768.31;10502121;28;20074;-80
2023/05/13 10:00:19;;;;;;;8.37;6.53;;;;;;;28.97;50.96;101771.34;10518447;28;20031;-81
2023/05/13 10:05:19;;;;;;;9.53;6.93;;;;;;;29.66;49.73;101763.94;10517159;28;20100;-80
2023/05/13 10:10:20;;;;;;;10.13;5.88;;;;;;;29.52;48.39;101757.91;10508096;28;20036;-80
2023/05/13 10:15:21;;;;;;;7.63;5.97;;;;;;;29.50;47.81;101762.44;10510198;28;20373;-80
2023/05/13 10:20:23;;;;;;;14.80;6.15;;;;;;;29.30;48.98;101751.03;10492736;28;20411;-79
2023/05/13 10:25:23;;;;;;;6.43;5.13;;;;;;;29.37;42.55;101759.00;10496779;28;20444;-81
2023/05/13 10:30:25;;;;;;;6.37;5.77;;;;;;;29.55;48.21;101747.06;10500462;28;20044;-81
2023/05/13 10:35:28;;;;;;;9.15;5.32;;;;;;;29.37;46.51;101743.75;10490681;28;20133;-80
2023/05/13 10:41:08;;;;;;;16.10;4.65;;;;;;;28.22;45.00;101739.09;10501288;28;20039;-83
2023/05/13 10:46:11;;;;;;;7.97;5.35;;;;;;;29.83;46.06;101736.63;10512473;28;20055;-83
2023/05/13 10:51:13;;;;;;;9.50;6.13;;;;;;;29.64;43.87;101751.38;10491771;28;20122;-83
2023/05/13 10:56:14;;;;;;;8.48;5.70;;;;;;;29.50;46.67;101743.56;10502260;28;20032;-83
2023/05/13 11:01:18;;;;;;;14.48;5.10;;;;;;;29.82;42.71;101733.97;10499712;28;20397;-85
2023/05/13 11:06:20;;;;;;;10.35;5.15;;;;;;;29.84;39.16;101738.41;10493950;28;20044;-85
2023/05/13 11:11:23;;;;;;;7.57;4.78;;;;;;;30.09;37.49;101732.53;10488009;28;20048;-84
2023/05/13 11:16:24;;;;;;;7.47;4.50;;;;;;;30.09;42.97;101727.16;10511091;28;20052;-86
2023/05/13 11:21:31;;;;;;;6.57;5.10;;;;;;;29.71;41.19;101723.38;10517526;28;20468;-86
2023/05/13 11:27:11;;;;;;;7.28;5.03;;;;;;;30.13;40.95;101709.09;10522967;28;20075;-84
2023/05/13 11:32:12;;;;;;;7.47;5.35;;;;;;;28.13;42.38;101713.22;10505962;28;20395;-84
2023/05/13 11:37:12;;;;;;;10.83;4.73;;;;;;;27.51;46.75;101704.00;10522408;28;20120;-87
2023/05/13 11:42:13;;;;;;;6.00;5.00;;;;;;;29.26;40.12;101708.88;10501706;28;20036;-87
2023/05/13 11:47:14;;;;;;;8.53;5.67;;;;;;;29.74;38.25;101686.47;10492536;28;20036;-85
2023/05/13 11:52:16;;;;;;;7.63;4.93;;;;;;;29.69;43.05;101706.34;10520515;28;20035;-86
2023/05/13 11:57:18;;;;;;;8.85;4.55;;;;;;;29.93;41.43;101693.28;10487990;28;20044;-86
2023/05/13 12:02:29;;;;;;;9.85;5.50;;;;;;;30.54;38.85;101691.09;10497703;28;20040;-85
2023/05/13 12:07:29;;;;;;;;;;;;;;;29.03;43.59;101687.72;10514142;28;20048;-86
2023/05/13 12:12:31;;;;;;;14.13;5.50;;;;;;;27.46;45.98;101687.00;10517788;28;19932;-87
2023/05/13 12:17:32;;;;;;;8.60;6.60;;;;;;;29.00;47.37;101685.06;10497260;28;20048;-85
2023/05/13 12:22:33;;;;;;;7.53;5.78;;;;;;;26.86;48.94;101688.41;10504921;28;20043;-85
2023/05/13 12:27:34;;;;;;;9.43;4.82;;;;;;;28.38;44.47;101675.22;10500912;28;20134;-87
2023/05/13 12:32:34;;;;;;;10.50;4.53;;;;;;;28.20;47.30;101681.72;10496729;28;20040;-85
2023/05/13 12:37:35;;;;;;;9.83;5.97;;;;;;;28.16;47.06;101691.66;10497878;28;20558;-86
2023/05/13 12:42:35;;;;;;;9.77;6.57;;;;;;;28.59;48.06;101682.06;10515012;28;20056;-87
2023/05/13 12:47:49;;;;;;;7.17;5.23;;;;;;;29.11;49.13;101682.19;10505708;28;20078;-86
2023/05/13 12:52:50;;;;;;;8.52;5.88;;;;;;;29.62;43.96;101686.69;10510697;28;20131;-86
2023/05/13 12:58:00;;;;;;;;;;;;;;;29.42;41.89;101685.28;10500631;28;20049;-87
2023/05/13 13:03:01;;;;;;;6.03;5.05;;;;;;;26.86;39.23;101693.78;10518365;28;19946;-87
2023/05/13 13:08:04;;;;;;;8.73;6.20;;;;;;;26.29;51.71;101686.06;10517412;28;20571;-86
2023/05/13 13:13:04;;;;;;;7.95;6.90;;;;;;;26.27;48.93;101688.72;10515849;28;20500;-85
2023/05/13 13:18:05;;;;;;;7.20;5.13;;;;;;;23.31;53.16;101689.06;10511718;28;20114;-84
2023/05/13 13:23:05;;;;;;;7.97;5.40;;;;;;;23.37;57.38;101681.09;10511913;28;20040;-85
2023/05/13 13:28:06;;;;;;;11.17;6.20;;;;;;;26.38;52.51;101677.94;10498814;28;20126;-85
2023/05/13 13:33:06;;;;;;;7.73;6.00;;;;;;;24.99;50.89;101682.69;10513718;28;20040;-86
2023/05/13 13:38:07;;;;;;;6.13;4.93;;;;;;;22.97;54.55;101670.97;10501271;28;20513;-84
2023/05/13 13:43:07;;;;;;;7.03;5.07;;;;;;;23.71;60.31;101661.72;10495249;28;20142;-84
2023/05/13 13:48:08;;;;;;;7.53;4.40;;;;;;;26.59;48.31;101658.13;10503893;28;20075;-83
2023/05/13 13:53:08;;;;;;;6.03;3.80;;;;;;;28.08;40.83;101654.03;10495017;28;20048;-83
2023/05/13 13:58:09;;;;;;;10.33;5.30;;;;;;;29.07;40.39;101637.34;10513465;28;20135;-84
2023/05/13 14:03:09;;;;;;;6.43;4.93;;;;;;;29.55;37.70;101634.69;10521533;28;20163;-86
2023/05/13 14:08:10;;;;;;;7.60;5.33;;;;;;;27.33;39.52;101628.91;10508096;28;20072;-85
2023/05/13 14:13:11;;;;;;;9.40;4.10;;;;;;;27.50;45.14;101626.94;10515890;28;20036;-84
2023/05/13 14:18:11;;;;;;;10.47;5.07;;;;;;;28.33;44.55;101634.03;10516349;28;20123;-83
2023/05/13 14:23:12;;;;;;;8.07;4.93;;;;;;;28.99;37.65;101634.81;10507499;28;20127;-89
2023/05/13 14:28:14;;;;;;;5.93;4.10;;;;;;;27.83;39.77;101630.16;10501622;28;20040;-88
2023/05/13 14:33:14;;;;;;;5.75;4.43;;;;;;;25.33;43.19;101621.06;10512606;28;20051;-87
2023/05/13 14:38:15;;;;;;;5.33;4.27;;;;;;;23.78;46.91;101630.56;10488492;28;20050;-86
2023/05/13 14:43:15;;;;;;;7.17;4.80;;;;;;;23.28;50.95;101633.88;10498670;28;20038;-85
2023/05/13 14:48:16;;;;;;;6.10;3.60;;;;;;;24.12;52.00;101638.78;10503772;28;20182;-86
2023/05/13 14:53:16;;;;;;;6.27;4.13;;;;;;;23.77;51.85;101632.38;10501714;28;20140;-87
2023/05/13 14:58:17;;;;;;;6.83;3.77;;;;;;;22.41;50.50;101633.03;10506931;28;20520;-86
2023/05/13 15:03:17;;;;;;;6.70;3.70;;;;;;;21.70;53.33;101638.38;10501808;28;20059;-87
2023/05/13 15:08:18;;;;;;;5.30;4.03;;;;;;;21.52;56.01;101636.34;10514702;28;20472;-83
2023/05/13 15:13:18;;;;;;;11.13;6.00;;;;;;;21.70;58.13;101624.19;10497466;28;20146;-89
2023/05/13 15:18:19;;;;;;;5.50;3.80;;;;;;;22.36;51.51;101618.75;10497503;28;20100;-87
2023/05/13 15:23:19;;;;;;;5.53;4.10;;;;;;;22.67;51.64;101610.19;10499767;28;20050;-86
2023/05/13 15:28:20;;;;;;;3.97;3.40;;;;;;;22.85;56.46;101602.34;10503601;28;20098;-87
2023/05/13 15:33:20;;;;;;;6.57;4.03;;;;;;;22.94;51.41;101601.53;10501275;28;20599;-84
2023/05/13 15:38:21;;;;;;;6.70;4.10;;;;;;;21.70;57.05;101616.19;10498372;28;20032;-84
2023/05/13 15:43:21;;;;;;;7.60;3.97;;;;;;;20.66;58.99;101612.75;10494587;28;20123;-84
2023/05/13 15:48:22;;;;;;;8.40;3.67;;;;;;;20.16;66.35;101607.41;10511717;28;20498;-89
2023/05/13 15:53:22;;;;;;;4.93;3.47;;;;;;;19.94;83.06;101604.31;10496899;28;20044;-92
2023/05/13 15:58:23;;;;;;;8.03;4.50;;;;;;;20.56;69.74;101600.16;10502180;28;20124;-90
2023/05/13 16:03:23;;;;;;;7.97;3.37;;;;;;;21.67;60.18;101592.19;10502613;28;20119;-82
2023/05/13 16:08:24;;;;;;;7.20;3.83;;;;;;;22.53;60.44;101597.63;10515252;28;20127;-89
2023/05/13 16:13:24;;;;;;;9.63;4.60;;;;;;;22.63;52.92;101629.72;10497248;28;20048;-84
2023/05/13 16:18:25;;;;;;;9.27;4.53;;;;;;;21.11;57.47;101617.97;10514588;28;20036;-89
2023/05/13 16:23:26;;;;;;;4.83;3.63;;;;;;;20.25;62.98;101631.50;10485670;28;20059;-86
2023/05/13 16:28:26;;;;;;;7.47;3.33;;;;;;;20.02;64.31;101617.72;10485727;28;20121;-85
2023/05/13 16:33:27;;;;;;;4.33;3.10;;;;;;;19.81;64.10;101611.97;10494822;28;20460;-84
2023/05/13 16:38:29;;;;;;;5.30;3.00;;;;;;;19.54;62.36;101629.97;10503909;28;20047;-83
2023/05/13 16:43:29;;;;;;;;;;;;;;;19.27;65.17;101641.72;10512695;28;20051;-85
2023/05/13 16:48:29;;;;;;;6.97;3.87;;;;;;;18.95;66.24;101642.66;10510293;28;19928;-85
2023/05/13 16:53:30;;;;;;;4.40;3.83;;;;;;;18.70;64.97;101649.09;10503600;28;20317;-84
2023/05/13 16:58:31;;;;;;;4.72;2.72;;;;;;;18.44;67.88;101659.91;10501852;28;20051;-84
2023/05/13 17:03:31;;;;;;;8.25;3.53;;;;;;;18.08;73.92;101676.53;10506147;28;20040;-86
2023/05/13 17:08:32;;;;;;;5.15;3.80;;;;;;;17.49;78.12;101680.88;10514961;28;20050;-88
2023/05/13 17:13:33;;;;;;;6.15;3.75;;;;;;;17.12;87.74;101670.00;10512012;28;20140;-82
2023/05/13 17:18:33;;;;;;;8.15;3.92;;;;;;;17.08;90.72;101673.41;10506693;28;20051;-88
2023/05/13 17:23:34;;;;;;;7.25;3.40;;;;;;;16.95;100.00;101679.06;10498733;28;20044;-90
2023/05/13 17:28:36;;;;;;;9.50;3.70;;;;;;;16.87;100.00;101673.50;10494002;28;20054;-87
2023/05/13 17:33:37;;;;;;;5.43;3.63;;;;;;;16.83;100.00;101664.59;10516547;28;20522;-90
2023/05/13 17:38:37;;;;;;;6.93;5.53;;;;;;;16.88;100.00;101662.09;10503964;28;20073;-88
2023/05/13 17:43:38;;;;;;;8.70;4.50;;;;;;;16.82;100.00;101654.84;10507673;28;20059;-89
2023/05/13 17:48:38;;;;;;;6.65;3.95;;;;;;;16.95;100.00;101650.00;10519309;28;20115;-88
2023/05/13 17:53:39;;;;;;;7.60;4.00;;;;;;;17.11;100.00;101641.75;10511254;28;20036;-85
2023/05/13 17:58:39;;;;;;;6.68;3.50;;;;;;;17.28;100.00;101650.22;10502712;28;20148;-86
2023/05/13 18:03:40;;;;;;;6.57;4.75;;;;;;;17.11;100.00;101649.69;10516054;28;20048;-86
2023/05/13 18:08:40;;;;;;;6.22;4.70;;;;;;;17.03;100.00;101644.13;10515641;28;20119;-84
2023/05/13 18:13:41;;;;;;;5.57;4.97;;;;;;;16.94;100.00;101640.25;10492419;28;20131;-86
2023/05/13 18:18:41;;;;;;;6.22;4.53;;;;;;;16.78;100.00;101633.53;10516228;28;20048;-86
2023/05/13 18:23:44;;;;;;;6.32;4.93;;;;;;;16.54;100.00;101640.69;10493537;28;20148;-86
2023/05/13 18:28:45;;;;;;;9.98;4.22;;;;;;;16.12;100.00;101636.53;10505996;28;20567;-87
2023/05/13 18:33:45;;;;;;;7.38;4.18;;;;;;;15.61;100.00;101625.75;10512359;28;20039;-86
2023/05/13 18:38:46;;;;;;;6.97;5.07;;;;;;;15.19;100.00;101619.72;10504003;28;20138;-87
2023/05/13 18:43:47;;;;;;;8.07;4.80;;;;;;;15.01;100.00;101626.88;10493820;28;20040;-86
2023/05/13 18:48:47;;;;;;;7.28;5.53;;;;;;;14.92;100.00;101636.19;10503179;28;20123;-88
2023/05/13 18:53:48;;;;;;;11.30;6.93;;;;;;;14.96;100.00;101635.47;10509513;28;20547;-88
2023/05/13 18:58:48;;;;;;;8.80;6.03;;;;;;;14.95;100.00;101625.78;10514062;28;20123;-88
2023/05/13 19:03:49;;;;;;;7.13;5.60;;;;;;;14.84;100.00;101627.06;10509351;28;20562;-87
2023/05/13 19:08:50;;;;;;;7.53;5.78;;;;;;;14.72;100.00;101629.16;10487120;28;20048;-88
2023/05/13 19:13:50;;;;;;;11.02;6.10;;;;;;;14.58;100.00;101623.28;10516356;28;20127;-88
2023/05/13 19:18:51;;;;;;;8.35;5.32;;;;;;;14.45;100.00;101629.75;10492089;28;20444;-85
2023/05/13 19:23:52;;;;;;;17.17;6.57;;;;;;;14.36;100.00;101643.41;10507261;28;20054;-87
2023/05/13 19:28:52;;;;;;;7.85;5.28;;;;;;;14.24;100.00;101643.75;10504754;28;20718;-88
2023/05/13 19:33:53;;;;;;;19.98;5.95;;;;;;;14.06;100.00;101655.25;10496464;28;20074;-88
2023/05/13 19:38:54;;;;;;;9.70;6.80;;;;;;;13.94;100.00;101673.09;10504224;28;20172;-87
2023/05/13 19:43:55;;;;;;;9.90;5.78;;;;;;;13.74;100.00;101675.69;10515832;28;20109;-88
2023/05/13 19:48:56;;;;;;;9.30;5.78;;;;;;;13.63;100.00;101680.47;10509116;28;20036;-88
2023/05/13 19:53:56;;;;;;;9.75;5.95;;;;;;;13.37;100.00;101681.78;10501263;28;20066;-88
2023/05/13 19:58:57;;;;;;;7.38;5.65;;;;;;;13.00;100.00;101686.09;10514345;28;20123;-87
2023/05/13 20:03:58;;;;;;;8.65;6.03;;;;;;;12.80;100.00;101694.69;10512243;28;20470;-87
2023/05/13 20:08:59;;;;;;;7.60;6.20;;;;;;;12.61;100.00;101697.25;10506084;28;20040;-84
2023/05/13 20:14:00;;;;;;;13.85;7.18;;;;;;;12.32;100.00;101709.72;10487518;28;20040;-84
2023/05/13 20:19:01;;;;;;;16.80;7.32;;;;;;;12.17;100.00;101706.25;10518741;28;20115;-84
2023/05/13 20:24:01;;;;;;;10.18;7.88;;;;;;;12.06;100.00;101710.94;10520384;28;20490;-84
2023/05/13 20:29:02;;;;;;;11.48;7.50;;;;;;;12.03;100.00;101708.16;10487392;28;20119;-84
2023/05/13 20:34:02;;;;;;;13.43;6.50;;;;;;;11.97;100.00;101710.41;10492840;28;20369;-84
2023/05/13 20:39:03;;;;;;;9.95;7.72;;;;;;;11.94;100.00;101710.22;10518568;28;20046;-83
2023/05/13 20:44:05;;;;;;;13.23;8.00;;;;;;;11.66;100.00;101711.31;10523188;28;20048;-82
2023/05/13 20:49:06;;;;;;;11.93;7.90;;;;;;;11.44;100.00;101723.19;10494562;28;20036;-82
2023/05/13 20:54:07;;;;;;;10.07;7.72;;;;;;;11.12;100.00;101723.09;10508707;28;20086;-82
2023/05/13 20:59:08;;;;;;;12.40;9.27;;;;;;;10.98;100.00;101732.75;10495416;28;20043;-82
2023/05/13 21:04:09;;;;;;;13.25;8.75;;;;;;;10.75;100.00;101733.97;10504294;28;20547;-83
2023/05/13 21:09:09;;;;;;;14.48;11.23;;;;;;;10.64;100.00;101733.34;10499910;28;20487;-84
2023/05/13 21:14:10;;;;;;;16.20;12.18;;;;;;;10.63;100.00;101746.31;10483629;28;20116;-83
2023/05/13 21:19:20;;;;;;;14.68;12.90;;;;;;;10.62;100.00;101747.13;10503258;28;20133;-83
2023/05/13 21:24:21;;;;;;;16.45;12.43;;;;;;;10.59;100.00;101750.47;10504522;28;20044;-84
2023/05/13 21:29:21;;;;;;;18.52;13.85;;;;;;;10.58;100.00;101753.91;10505894;28;20488;-84
2023/05/13 21:34:22;;;;;;;20.08;13.52;;;;;;;10.64;100.00;101755.97;10506232;28;20105;-84
2023/05/13 21:39:22;;;;;;;22.13;14.90;;;;;;;10.68;100.00;101761.50;10501138;28;20070;-83
2023/05/13 21:44:23;;;;;;;19.90;15.02;;;;;;;10.70;100.00;101761.59;10523763;28;20458;-84
2023/05/13 21:49:24;;;;;;;18.05;14.23;;;;;;;10.64;100.00;101766.44;10494539;28;20043;-84
2023/05/13 21:54:24;;;;;;;20.73;14.55;;;;;;;10.64;100.00;101761.22;10484582;28;20039;-83
2023/05/13 21:59:25;;;;;;;13.57;11.10;;;;;;;10.57;100.00;101762.56;10488698;28;20144;-84
2023/05/13 22:04:25;;;;;;;17.48;11.93;;;;;;;10.41;100.00;101761.59;10491090;28;20131;-82
2023/05/13 22:09:26;;;;;;;16.20;13.23;;;;;;;10.27;100.00;101762.41;10499817;28;20058;-83
2023/05/13 22:14:26;;;;;;;19.67;16.15;;;;;;;10.32;100.00;101758.38;10496022;28;20573;-83
2023/05/13 22:19:27;;;;;;;18.25;13.35;;;;;;;10.35;100.00;101758.56;10504473;28;20089;-83
2023/05/13 22:24:29;;;;;;;17.63;12.57;;;;;;;10.16;100.00;101766.97;10512397;28;20048;-83
2023/05/13 22:29:30;;;;;;;23.73;16.33;;;;;;;10.08;100.00;101760.31;10498954;28;20039;-84
2023/05/13 22:34:31;;;;;;;21.83;15.18;;;;;;;9.99;100.00;101756.31;10512297;28;20373;-84
2023/05/13 22:39:31;;;;;;;22.30;16.57;;;;;;;9.94;100.00;101754.22;10485350;28;20387;-83
2023/05/13 22:44:32;;;;;;;20.83;14.90;;;;;;;9.72;100.00;101752.84;10506774;28;20067;-83